Time;durP1;ratioP1;P1;durP2;ratioP2;P2;SDS_P1;SDS_P2;PMS_P1;PMS_P2;Temp;Humidity;BMP_temperature;BMP_pressure;BME280_temperature;BME280_humidity;BME280_pressure;Samples;Min_cycle;Max_cycle;Signal;HPM_P1;HPM_P2
2023/03/24 00:00:13;;;;;;;6.20;5.60;;;11.40;99.90;;;;;;5066632;28;20945;-49
2023/03/24 00:02:41;;;;;;;7.47;6.50;;;11.30;99.90;;;;;;5059951;28;20449;-50
2023/03/24 00:05:09;;;;;;;6.90;6.20;;;11.30;99.90;;;;;;5072794;28;20445;-49
2023/03/24 00:07:38;;;;;;;6.93;6.33;;;11.10;99.90;;;;;;5073931;28;20836;-49
2023/03/24 00:10:08;;;;;;;6.70;6.13;;;10.60;99.90;;;;;;5071717;28;20439;-49
2023/03/24 00:12:37;;;;;;;7.37;6.67;;;10.40;99.90;;;;;;5072940;28;20444;-49
2023/03/24 00:15:07;;;;;;;8.03;7.17;;;10.40;99.90;;;;;;5054823;28;20462;-49
2023/03/24 00:17:35;;;;;;;8.70;6.00;;;10.40;99.90;;;;;;5053694;28;20539;-50
2023/03/24 00:20:10;;;;;;;7.53;6.77;;;10.40;99.90;;;;;;5053330;28;20495;-50
2023/03/24 00:22:41;;;;;;;7.33;6.63;;;10.30;99.90;;;;;;5060777;28;20442;-49
2023/03/24 00:25:10;;;;;;;6.97;5.63;;;10.10;99.90;;;;;;5072979;28;20884;-49
2023/03/24 00:27:37;;;;;;;11.40;6.40;;;10.30;99.90;;;;;;5073241;28;20482;-49
2023/03/24 00:30:06;;;;;;;7.63;6.70;;;10.50;99.90;;;;;;5073781;28;20526;-49
2023/03/24 00:32:35;;;;;;;115.43;48.77;;;10.60;99.90;;;;;;5073104;28;20525;-49
2023/03/24 00:35:03;;;;;;;12.50;8.63;;;10.80;99.90;;;;;;5053417;28;20453;-49
2023/03/24 00:37:30;;;;;;;8.10;5.83;;;10.80;99.90;;;;;;5052816;28;20472;-49
2023/03/24 00:39:58;;;;;;;7.67;6.07;;;10.60;99.90;;;;;;5063523;28;20784;-49
2023/03/24 00:42:26;;;;;;;7.43;6.10;;;10.60;99.90;;;;;;5072795;28;20800;-51
2023/03/24 00:44:53;;;;;;;6.33;5.63;;;10.70;99.90;;;;;;5061191;28;20452;-50
2023/03/24 00:47:24;;;;;;;7.97;5.90;;;10.70;99.90;;;;;;5052900;28;21077;-49
2023/03/24 00:49:53;;;;;;;6.53;5.83;;;10.80;99.90;;;;;;5052574;28;20448;-50
2023/03/24 00:52:23;;;;;;;6.07;5.50;;;10.90;99.90;;;;;;5053214;28;20874;-50
2023/03/24 00:54:53;;;;;;;7.43;6.60;;;10.70;99.90;;;;;;5068708;28;21134;-50
2023/03/24 00:57:21;;;;;;;6.50;5.63;;;10.50;99.90;;;;;;5072964;28;20464;-49
2023/03/24 00:59:51;;;;;;;8.30;6.27;;;10.60;99.90;;;;;;5072562;28;20930;-50
2023/03/24 01:02:21;;;;;;;6.23;5.00;;;10.70;99.90;;;;;;5072259;28;20438;-49
2023/03/24 01:04:48;;;;;;;7.40;4.90;;;11.00;99.90;;;;;;5057816;28;20455;-49
2023/03/24 01:07:16;;;;;;;7.30;6.60;;;11.00;99.90;;;;;;5051293;28;20534;-49
2023/03/24 01:09:45;;;;;;;6.67;5.97;;;11.00;99.90;;;;;;5050974;28;20483;-50
2023/03/24 01:12:12;;;;;;;5.73;5.30;;;10.90;99.90;;;;;;5050629;28;20488;-50
2023/03/24 01:14:39;;;;;;;6.40;5.80;;;10.90;99.90;;;;;;5050490;28;20626;-49
2023/03/24 01:17:07;;;;;;;7.17;6.57;;;10.80;99.90;;;;;;5050421;28;20815;-49
2023/03/24 01:19:35;;;;;;;7.47;6.50;;;10.70;99.90;;;;;;5067459;28;20853;-49
2023/03/24 01:22:02;;;;;;;7.43;5.87;;;10.60;99.90;;;;;;5071235;28;20447;-49
2023/03/24 01:24:30;;;;;;;6.97;5.70;;;10.50;99.90;;;;;;5071954;28;20450;-49
2023/03/24 01:26:56;;;;;;;9.13;5.30;;;10.30;99.90;;;;;;5052893;28;20955;-49
2023/03/24 01:29:23;;;;;;;9.57;7.63;;;10.30;99.90;;;;;;5052190;28;20450;-50
2023/03/24 01:31:50;;;;;;;7.93;7.10;;;10.40;99.90;;;;;;5070168;28;20445;-49
2023/03/24 01:34:19;;;;;;;8.90;7.10;;;10.50;99.90;;;;;;5070626;28;20448;-49
2023/03/24 01:36:46;;;;;;;10.47;7.70;;;10.50;99.90;;;;;;5071620;28;20447;-49
2023/03/24 01:39:13;;;;;;;6.97;5.93;;;10.60;99.90;;;;;;5061825;28;20990;-49
2023/03/24 01:41:40;;;;;;;7.47;6.20;;;10.60;99.90;;;;;;5051753;28;20748;-50
2023/03/24 01:44:31;;;;;;;7.07;5.87;;;10.70;99.90;;;;;;5071550;28;20838;-49
2023/03/24 01:46:59;;;;;;;6.50;5.10;;;10.60;99.90;;;;;;5066929;28;20441;-51
2023/03/24 01:49:31;;;;;;;6.27;4.97;;;10.40;99.90;;;;;;5051707;28;20562;-49
2023/03/24 01:52:01;;;;;;;6.00;5.40;;;10.50;99.90;;;;;;5054255;28;20447;-51
2023/03/24 01:54:33;;;;;;;9.00;5.53;;;10.60;99.90;;;;;;5072194;28;20442;-51
2023/03/24 01:57:05;;;;;;;5.70;4.87;;;10.60;99.90;;;;;;5067099;28;20494;-49
2023/03/24 01:59:36;;;;;;;5.63;5.07;;;10.10;99.90;;;;;;5051753;28;20483;-49
2023/03/24 02:02:05;;;;;;;7.03;5.33;;;10.00;99.90;;;;;;5051136;28;20837;-51
2023/03/24 02:04:37;;;;;;;6.30;5.70;;;10.10;99.90;;;;;;5052089;28;20448;-50
2023/03/24 02:07:12;;;;;;;6.00;5.37;;;10.00;99.90;;;;;;5051381;28;20456;-49
2023/03/24 02:09:39;;;;;;;8.53;6.50;;;10.10;99.90;;;;;;5051365;28;20510;-49
2023/03/24 02:12:06;;;;;;;9.20;6.60;;;10.10;99.90;;;;;;5050902;28;20851;-49
2023/03/24 02:14:33;;;;;;;5.93;5.27;;;10.10;99.90;;;;;;5051336;28;20443;-49
2023/03/24 02:17:23;;;;;;;6.23;5.57;;;10.10;99.90;;;;;;5051736;28;20507;-49
2023/03/24 02:20:19;;;;;;;5.73;5.23;;;10.20;99.90;;;;;;5051223;28;20449;-49
2023/03/24 02:23:24;;;;;;;7.50;6.17;;;10.20;99.90;;;;;;5051054;28;20941;-51
2023/03/24 02:26:21;;;;;;;8.50;5.40;;;10.30;99.90;;;;;;5049596;28;20456;-49
2023/03/24 02:28:58;;;;;;;8.20;5.40;;;10.10;99.90;;;;;;5056883;28;20492;-49
2023/03/24 02:31:42;;;;;;;7.40;5.70;;;9.70;99.90;;;;;;5070949;28;20449;-49
2023/03/24 02:34:48;;;;;;;6.67;5.97;;;9.90;99.90;;;;;;5062018;28;20519;-50
2023/03/24 02:37:39;;;;;;;6.13;5.53;;;10.00;99.90;;;;;;5046859;28;20467;-49
2023/03/24 02:40:22;;;;;;;5.83;5.33;;;10.10;99.90;;;;;;5059466;28;20810;-49
2023/03/24 02:43:02;;;;;;;7.00;5.30;;;10.20;99.90;;;;;;5050885;28;20435;-50
2023/03/24 02:45:36;;;;;;;5.23;4.80;;;10.10;99.90;;;;;;5051189;28;20441;-50
2023/03/24 02:48:23;;;;;;;6.27;5.67;;;10.20;99.90;;;;;;5051110;28;20571;-49
2023/03/24 02:50:56;;;;;;;5.80;5.00;;;10.30;99.90;;;;;;5067999;28;20857;-50
2023/03/24 02:53:32;;;;;;;6.30;5.53;;;10.10;99.90;;;;;;5070503;28;20454;-49
2023/03/24 02:56:07;;;;;;;6.67;6.07;;;10.20;99.90;;;;;;5070882;28;20445;-51
2023/03/24 02:58:40;;;;;;;6.70;5.33;;;10.30;99.90;;;;;;5070740;28;20535;-49
2023/03/24 03:01:13;;;;;;;6.70;5.40;;;10.10;99.90;;;;;;5070270;28;20474;-51
2023/03/24 03:03:44;;;;;;;6.70;5.20;;;10.10;99.90;;;;;;5070332;28;20443;-50
2023/03/24 03:06:16;;;;;;;6.87;6.13;;;10.20;99.90;;;;;;5070747;28;20446;-49
2023/03/24 03:08:46;;;;;;;5.37;4.90;;;10.20;99.90;;;;;;5056831;28;20835;-49
2023/03/24 03:11:17;;;;;;;7.23;6.53;;;10.10;99.90;;;;;;5050220;28;20450;-49
2023/03/24 03:13:50;;;;;;;6.70;6.00;;;9.80;99.90;;;;;;5058116;28;20442;-50
2023/03/24 03:16:24;;;;;;;6.80;5.90;;;9.50;99.90;;;;;;5070950;28;20445;-49
2023/03/24 03:18:55;;;;;;;7.47;6.67;;;9.60;99.90;;;;;;5062971;28;20818;-49
2023/03/24 03:21:25;;;;;;;7.67;5.90;;;9.70;99.90;;;;;;5050509;28;20451;-49
2023/03/24 03:23:56;;;;;;;6.30;5.40;;;9.70;99.90;;;;;;5050805;28;20503;-49
2023/03/24 03:26:27;;;;;;;7.00;6.30;;;9.90;99.90;;;;;;5050506;28;20867;-49
2023/03/24 03:28:59;;;;;;;7.27;5.57;;;9.80;99.90;;;;;;5050643;28;20490;-50
2023/03/24 03:31:30;;;;;;;7.23;6.53;;;9.80;99.90;;;;;;5050532;28;20451;-49
2023/03/24 03:34:06;;;;;;;6.50;5.90;;;9.80;99.90;;;;;;5049740;28;21028;-50
2023/03/24 03:36:38;;;;;;;7.07;6.33;;;10.00;99.90;;;;;;5050560;28;20439;-49
2023/03/24 03:39:12;;;;;;;7.73;6.40;;;10.00;99.90;;;;;;5069489;28;20702;-49
2023/03/24 03:41:42;;;;;;;6.17;5.57;;;10.10;99.90;;;;;;5073920;28;20811;-49
2023/03/24 03:44:09;;;;;;;6.50;5.90;;;10.00;99.90;;;;;;5074268;28;20552;-49
2023/03/24 03:46:36;;;;;;;6.50;5.80;;;10.00;99.90;;;;;;5073877;28;20929;-50
2023/03/24 03:49:04;;;;;;;8.87;5.70;;;10.00;99.90;;;;;;5055168;28;20541;-49
2023/03/24 03:51:33;;;;;;;6.83;5.47;;;9.90;99.90;;;;;;5054166;28;20446;-49
2023/03/24 03:54:03;;;;;;;5.87;5.37;;;9.90;99.90;;;;;;5053746;28;21003;-50
2023/03/24 03:56:33;;;;;;;6.63;5.20;;;10.00;99.90;;;;;;5054561;28;20782;-51
2023/03/24 03:59:02;;;;;;;6.30;5.30;;;10.10;99.90;;;;;;5071522;28;20463;-49
2023/03/24 04:01:33;;;;;;;6.57;5.97;;;10.20;99.90;;;;;;5073629;28;20473;-50
2023/03/24 04:04:32;;;;;;;5.93;5.37;;;10.40;99.90;;;;;;5033878;28;20536;-49
2023/03/24 04:07:08;;;;;;;6.60;5.67;;;10.40;99.90;;;;;;5035282;28;20444;-51
2023/03/24 04:09:48;;;;;;;6.50;5.83;;;10.30;99.90;;;;;;5053760;28;20484;-49
2023/03/24 04:12:37;;;;;;;6.60;5.90;;;10.30;99.90;;;;;;5053208;28;20444;-49
2023/03/24 04:15:18;;;;;;;6.80;6.20;;;10.20;99.90;;;;;;5053714;28;20450;-50
2023/03/24 04:18:05;;;;;;;6.40;5.40;;;10.00;99.90;;;;;;5053385;28;20536;-49
2023/03/24 04:20:45;;;;;;;6.40;5.80;;;9.80;99.90;;;;;;5053612;28;20502;-49
2023/03/24 04:23:25;;;;;;;7.37;6.20;;;9.90;99.90;;;;;;5053395;28;20454;-48
2023/03/24 04:26:00;;;;;;;7.53;5.27;;;10.00;99.90;;;;;;5053684;28;20446;-50
2023/03/24 04:28:32;;;;;;;13.00;6.67;;;9.90;99.90;;;;;;5053241;28;20485;-49
2023/03/24 04:31:07;;;;;;;6.50;5.47;;;9.90;99.90;;;;;;5053294;28;20501;-50
2023/03/24 04:33:40;;;;;;;6.20;5.60;;;10.00;99.90;;;;;;5052863;28;20993;-49
2023/03/24 04:36:16;;;;;;;9.40;5.60;;;9.40;99.90;;;;;;5053096;28;20507;-50
2023/03/24 04:38:47;;;;;;;8.13;5.60;;;9.30;99.90;;;;;;5053063;28;20812;-49
2023/03/24 04:41:16;;;;;;;11.43;5.87;;;9.30;99.90;;;;;;5053164;28;20995;-52
2023/03/24 04:43:44;;;;;;;7.07;6.23;;;9.60;99.90;;;;;;5063921;28;20863;-49
2023/03/24 04:46:16;;;;;;;6.30;5.70;;;9.80;99.90;;;;;;5072705;28;20442;-50
2023/03/24 04:48:44;;;;;;;6.90;5.77;;;9.70;99.90;;;;;;5070604;28;20500;-50
2023/03/24 04:51:12;;;;;;;8.20;5.40;;;9.70;99.90;;;;;;5071494;28;20446;-49
2023/03/24 04:53:39;;;;;;;6.10;5.50;;;9.50;99.90;;;;;;5072841;28;20879;-50
2023/03/24 04:56:27;;;;;;;5.77;5.23;;;9.50;99.90;;;;;;5072352;28;20441;-49
2023/03/24 04:58:55;;;;;;;6.70;5.87;;;9.70;99.90;;;;;;5072091;28;20566;-50
2023/03/24 05:01:24;;;;;;;6.60;5.97;;;9.50;99.90;;;;;;5065432;28;20450;-49
2023/03/24 05:03:52;;;;;;;6.90;5.90;;;9.40;99.90;;;;;;5052325;28;20442;-51
2023/03/24 05:06:19;;;;;;;6.30;5.20;;;9.40;99.90;;;;;;5052752;28;20438;-49
2023/03/24 05:08:46;;;;;;;6.40;5.80;;;9.30;99.90;;;;;;5066886;28;20481;-50
2023/03/24 05:11:13;;;;;;;6.97;6.27;;;9.40;99.90;;;;;;5071782;28;20456;-49
2023/03/24 05:13:40;;;;;;;6.93;6.20;;;9.60;99.90;;;;;;5068478;28;20534;-50
2023/03/24 05:16:08;;;;;;;7.70;6.37;;;9.60;99.90;;;;;;5052281;28;20549;-49
2023/03/24 05:18:36;;;;;;;67.73;43.40;;;9.60;99.90;;;;;;5065364;28;20498;-49
2023/03/24 05:21:03;;;;;;;10.03;7.83;;;9.40;99.90;;;;;;5055714;28;20475;-49
2023/03/24 05:23:30;;;;;;;6.87;6.27;;;9.20;99.90;;;;;;5032351;28;20489;-49
2023/03/24 05:25:57;;;;;;;8.00;7.20;;;9.10;99.90;;;;;;5032479;28;20970;-49
2023/03/24 05:28:24;;;;;;;6.77;6.17;;;9.40;99.90;;;;;;5054471;28;20557;-49
2023/03/24 05:30:50;;;;;;;5.80;5.30;;;9.70;99.90;;;;;;5071887;28;20469;-51
2023/03/24 05:33:17;;;;;;;10.50;7.60;;;9.80;99.90;;;;;;5060705;28;20526;-49
2023/03/24 05:35:46;;;;;;;6.50;5.93;;;9.60;99.90;;;;;;5053385;28;20473;-49
2023/03/24 05:38:12;;;;;;;8.83;7.93;;;9.70;99.90;;;;;;5051500;28;20467;-49
2023/03/24 05:40:40;;;;;;;10.03;8.47;;;9.80;99.90;;;;;;5051287;28;20473;-50
2023/03/24 05:43:07;;;;;;;8.63;7.73;;;9.90;99.90;;;;;;5062593;28;20446;-49
2023/03/24 05:45:34;;;;;;;12.47;10.30;;;10.00;99.90;;;;;;5065512;28;20597;-50
2023/03/24 05:48:01;;;;;;;8.70;7.90;;;9.80;99.90;;;;;;5046117;28;20991;-49
2023/03/24 05:50:27;;;;;;;7.53;6.93;;;9.50;99.90;;;;;;5051764;28;21099;-50
2023/03/24 05:52:56;;;;;;;8.23;6.53;;;9.50;99.90;;;;;;5063933;28;21008;-49
2023/03/24 05:55:24;;;;;;;8.47;7.03;;;9.40;99.90;;;;;;5071838;28;20449;-49
2023/03/24 05:57:51;;;;;;;8.20;7.30;;;9.60;99.90;;;;;;5070050;28;20547;-48
2023/03/24 06:00:19;;;;;;;9.60;8.23;;;9.70;99.90;;;;;;5069381;28;20441;-49
2023/03/24 06:02:46;;;;;;;12.43;8.00;;;9.70;99.90;;;;;;5053945;28;20477;-49
2023/03/24 06:05:13;;;;;;;11.90;8.67;;;9.90;99.90;;;;;;5051550;28;20959;-49
2023/03/24 06:07:41;;;;;;;11.30;8.50;;;9.60;99.90;;;;;;5059343;22;20857;-86
2023/03/24 06:10:13;;;;;;;11.80;7.90;;;9.20;99.90;;;;;;5052814;28;20721;-85
2023/03/24 06:12:40;;;;;;;11.93;8.47;;;9.40;99.90;;;;;;5051688;28;20505;-85
2023/03/24 06:15:08;;;;;;;10.50;7.07;;;9.70;99.90;;;;;;5051979;28;20485;-86
2023/03/24 06:17:37;;;;;;;8.13;7.43;;;9.60;99.90;;;;;;5047362;28;20484;-86
2023/03/24 06:20:04;;;;;;;8.90;8.00;;;9.60;99.90;;;;;;5045819;28;20474;-86
2023/03/24 06:22:33;;;;;;;10.03;8.40;;;9.70;99.90;;;;;;5048628;28;20448;-87
2023/03/24 06:25:01;;;;;;;11.43;8.47;;;9.90;99.90;;;;;;5041170;28;20898;-86
2023/03/24 06:27:29;;;;;;;12.53;11.33;;;9.90;99.90;;;;;;5047425;28;20503;-85
2023/03/24 06:29:57;;;;;;;14.37;12.97;;;9.70;99.90;;;;;;5050770;28;20478;-86
2023/03/24 06:32:25;;;;;;;10.33;9.23;;;9.80;99.90;;;;;;5050791;28;20481;-87
2023/03/24 06:34:52;;;;;;;10.03;9.03;;;10.00;99.90;;;;;;5050577;28;21069;-86
2023/03/24 06:37:21;;;;;;;9.70;7.27;;;10.00;99.90;;;;;;5050383;28;20429;-86
2023/03/24 06:39:48;;;;;;;16.50;13.80;;;10.10;99.90;;;;;;5051591;28;20527;-86
2023/03/24 06:42:17;;;;;;;12.37;11.17;;;10.00;99.90;;;;;;5051679;28;20504;-86
2023/03/24 06:44:45;;;;;;;14.70;10.80;;;10.10;99.90;;;;;;5051468;28;20457;-86
2023/03/24 06:47:12;;;;;;;13.93;10.00;;;10.10;99.90;;;;;;5052095;28;20520;-86
2023/03/24 06:49:39;;;;;;;9.80;8.80;;;10.20;99.90;;;;;;5051780;28;20477;-86
2023/03/24 06:52:06;;;;;;;14.53;11.07;;;10.20;99.90;;;;;;5051605;28;20500;-86
2023/03/24 06:54:33;;;;;;;10.17;9.07;;;10.30;99.90;;;;;;5051596;28;20543;-85
2023/03/24 06:57:00;;;;;;;11.33;10.23;;;10.30;99.90;;;;;;5050921;28;20447;-86
2023/03/24 06:59:27;;;;;;;8.87;7.60;;;10.30;99.90;;;;;;5050327;28;20816;-86
2023/03/24 07:01:55;;;;;;;9.30;8.40;;;10.30;99.90;;;;;;5050961;28;20876;-86
2023/03/24 07:04:24;;;;;;;14.30;10.00;;;10.60;99.90;;;;;;5051057;28;20911;-88
2023/03/24 07:06:51;;;;;;;10.90;9.80;;;10.50;99.90;;;;;;5032901;28;20452;-84
2023/03/24 07:09:18;;;;;;;11.23;10.07;;;10.60;99.90;;;;;;5047220;28;21028;-84
2023/03/24 07:11:45;;;;;;;14.30;10.80;;;10.60;99.90;;;;;;5036273;28;20891;-84
2023/03/24 07:14:12;;;;;;;10.17;9.17;;;10.70;99.90;;;;;;5035323;28;20463;-83
2023/03/24 07:16:39;;;;;;;10.50;9.40;;;10.20;99.90;;;;;;5039060;28;20483;-84
2023/03/24 07:19:07;;;;;;;10.13;8.40;;;10.00;99.90;;;;;;5050322;28;20502;-84
2023/03/24 07:21:34;;;;;;;9.93;9.03;;;10.10;99.90;;;;;;5038644;28;20979;-85
2023/03/24 07:24:02;;;;;;;10.40;9.40;;;10.10;99.90;;;;;;5047260;28;20464;-85
2023/03/24 07:26:29;;;;;;;11.43;8.60;;;10.10;99.90;;;;;;5056590;28;21018;-86
2023/03/24 07:28:56;;;;;;;12.07;9.13;;;10.10;99.90;;;;;;5041437;28;20449;-85
2023/03/24 07:31:23;;;;;;;9.97;8.97;;;10.30;99.90;;;;;;5035733;28;20451;-85
2023/03/24 07:33:50;;;;;;;9.77;8.80;;;10.20;99.90;;;;;;5035931;28;20503;-87
2023/03/24 07:36:19;;;;;;;10.30;9.20;;;10.30;99.90;;;;;;5034584;28;20926;-86
2023/03/24 07:38:46;;;;;;;10.93;9.93;;;10.40;99.90;;;;;;5033684;28;20816;-86
2023/03/24 07:41:12;;;;;;;11.83;9.30;;;10.50;99.90;;;;;;5034589;28;20486;-86
2023/03/24 07:43:40;;;;;;;9.00;8.20;;;10.70;99.90;;;;;;5032822;28;20500;-86
2023/03/24 07:46:07;;;;;;;8.40;7.43;;;10.80;99.90;;;;;;5033542;28;20942;-86
2023/03/24 07:48:33;;;;;;;9.17;8.23;;;10.90;99.90;;;;;;5034089;28;20533;-86
2023/03/24 07:51:00;;;;;;;10.13;8.77;;;11.00;99.90;;;;;;5034993;28;20476;-86
2023/03/24 07:53:29;;;;;;;10.40;9.47;;;11.00;99.90;;;;;;5033867;28;20492;-86
2023/03/24 07:55:55;;;;;;;10.90;9.80;;;11.10;99.90;;;;;;5034704;28;20475;-86
2023/03/24 07:58:22;;;;;;;10.43;9.53;;;11.20;99.90;;;;;;5034540;28;20457;-86
2023/03/24 08:00:49;;;;;;;10.20;9.20;;;11.30;99.90;;;;;;5034210;28;20438;-86
2023/03/24 08:03:16;;;;;;;10.33;8.67;;;11.40;99.90;;;;;;5034477;28;20485;-86
2023/03/24 08:05:45;;;;;;;7.80;7.10;;;11.40;99.90;;;;;;5034271;28;20454;-86
2023/03/24 08:08:12;;;;;;;9.43;8.43;;;11.50;99.90;;;;;;5034906;28;20465;-85
2023/03/24 08:10:41;;;;;;;9.37;8.30;;;11.50;99.90;;;;;;5034232;28;20863;-85
2023/03/24 08:13:08;;;;;;;11.80;8.00;;;11.60;99.90;;;;;;5033995;28;20830;-85
2023/03/24 08:15:36;;;;;;;8.80;7.80;;;11.40;99.90;;;;;;5034603;28;20480;-86
2023/03/24 08:18:03;;;;;;;15.00;8.57;;;11.50;99.90;;;;;;5033323;28;20927;-86
2023/03/24 08:20:30;;;;;;;8.40;7.50;;;11.50;99.90;;;;;;5032645;28;20481;-86
2023/03/24 08:22:59;;;;;;;11.40;8.90;;;11.50;99.90;;;;;;5032465;28;20457;-85
2023/03/24 08:25:27;;;;;;;11.23;8.40;;;11.60;99.90;;;;;;5033123;28;20978;-87
2023/03/24 08:27:55;;;;;;;11.80;7.77;;;11.60;99.90;;;;;;5034157;28;20442;-87
2023/03/24 08:30:25;;;;;;;9.77;7.70;;;11.70;99.90;;;;;;5032877;28;21014;-87
2023/03/24 08:32:54;;;;;;;10.67;7.80;;;11.60;99.90;;;;;;5033705;28;20496;-87
2023/03/24 08:35:24;;;;;;;16.10;13.30;;;11.60;99.90;;;;;;5034206;28;20502;-87
2023/03/24 08:37:51;;;;;;;12.57;10.17;;;11.80;99.90;;;;;;5038023;28;20450;-87
2023/03/24 08:40:22;;;;;;;16.00;13.43;;;11.80;99.90;;;;;;5034726;28;20826;-87
2023/03/24 08:42:51;;;;;;;11.30;10.20;;;11.80;99.90;;;;;;5035504;28;20458;-87
2023/03/24 08:45:20;;;;;;;11.37;9.87;;;11.70;99.90;;;;;;5035238;28;20446;-87
2023/03/24 08:47:47;;;;;;;10.07;8.40;;;11.80;99.90;;;;;;5035544;28;20430;-87
2023/03/24 08:50:15;;;;;;;9.60;8.60;;;11.90;99.90;;;;;;5050134;28;20478;-88
2023/03/24 08:52:42;;;;;;;10.20;8.90;;;12.00;99.90;;;;;;5048248;28;20423;-87
2023/03/24 08:55:10;;;;;;;8.10;7.40;;;12.00;99.90;;;;;;5036515;28;20807;-87
2023/03/24 08:57:37;;;;;;;9.87;7.93;;;12.00;99.90;;;;;;5035878;28;20462;-87
2023/03/24 09:00:12;;;;;;;7.60;6.80;;;12.10;99.90;;;;;;5035252;28;20536;-87
2023/03/24 09:02:40;;;;;;;8.83;7.70;;;12.20;99.90;;;;;;5034778;28;20454;-87
2023/03/24 09:05:08;;;;;;;8.57;7.70;;;12.30;99.90;;;;;;5034864;28;20480;-87
2023/03/24 09:07:35;;;;;;;9.07;8.17;;;12.30;99.90;;;;;;5035207;28;20585;-86
2023/03/24 09:10:03;;;;;;;8.97;8.07;;;12.40;99.90;;;;;;5034802;28;20482;-87
2023/03/24 09:12:30;;;;;;;10.80;8.03;;;12.50;99.90;;;;;;5033740;28;20445;-87
2023/03/24 09:14:57;;;;;;;8.13;7.40;;;12.50;99.90;;;;;;5034287;28;20512;-87
2023/03/24 09:17:24;;;;;;;8.67;7.77;;;12.60;99.90;;;;;;5034876;28;20829;-87
2023/03/24 09:19:54;;;;;;;6.43;5.83;;;12.50;99.90;;;;;;5034813;28;20439;-87
2023/03/24 09:22:20;;;;;;;9.77;8.77;;;12.50;99.90;;;;;;5034738;28;20465;-87
2023/03/24 09:24:48;;;;;;;9.60;8.70;;;12.40;99.90;;;;;;5035149;28;20986;-87
2023/03/24 09:27:15;;;;;;;8.83;7.37;;;12.40;99.90;;;;;;5034961;28;20466;-87
2023/03/24 09:29:42;;;;;;;8.07;7.27;;;12.50;99.90;;;;;;5034275;28;20447;-87
2023/03/24 09:32:09;;;;;;;9.33;6.60;;;12.50;99.90;;;;;;5034458;28;20446;-87
2023/03/24 09:34:37;;;;;;;8.57;7.77;;;12.50;99.90;;;;;;5046123;28;21023;-87
2023/03/24 09:37:05;;;;;;;9.30;8.33;;;12.60;99.90;;;;;;5053535;28;20449;-87
2023/03/24 09:39:35;;;;;;;8.47;7.40;;;12.60;99.90;;;;;;5053788;28;20707;-87
2023/03/24 09:42:04;;;;;;;10.07;7.37;;;12.70;99.90;;;;;;5054607;28;20537;-87
2023/03/24 09:44:36;;;;;;;8.47;7.13;;;12.70;99.90;;;;;;5053708;28;20519;-87
2023/03/24 09:47:13;;;;;;;18.13;8.60;;;12.80;99.90;;;;;;5053590;28;20481;-85
2023/03/24 09:49:43;;;;;;;9.40;8.47;;;12.90;99.90;;;;;;5053618;28;20941;-85
2023/03/24 09:52:14;;;;;;;9.20;7.87;;;12.90;99.90;;;;;;5053359;28;20434;-85
2023/03/24 09:54:47;;;;;;;8.40;7.30;;;13.00;99.90;;;;;;5053220;28;21130;-86
2023/03/24 09:57:20;;;;;;;8.67;7.80;;;13.00;99.90;;;;;;5052812;28;20545;-86
2023/03/24 09:59:47;;;;;;;8.50;7.60;;;13.10;99.90;;;;;;5053849;28;20849;-85
2023/03/24 10:02:16;;;;;;;8.67;7.87;;;13.10;99.90;;;;;;5054013;28;20478;-86
2023/03/24 10:04:43;;;;;;;8.43;7.60;;;13.10;99.90;;;;;;5053122;28;20993;-86
2023/03/24 10:07:19;;;;;;;11.80;7.70;;;13.20;99.90;;;;;;5053483;28;20460;-86
2023/03/24 10:09:53;;;;;;;7.23;6.50;;;13.20;99.90;;;;;;5053337;28;20926;-86
2023/03/24 10:12:28;;;;;;;8.10;6.63;;;13.20;99.90;;;;;;5052959;28;20505;-86
2023/03/24 10:15:04;;;;;;;7.80;6.80;;;13.20;99.90;;;;;;5053234;28;20511;-86
2023/03/24 10:17:41;;;;;;;10.17;7.43;;;13.30;99.90;;;;;;5054024;28;20595;-87
2023/03/24 10:20:23;;;;;;;9.13;7.60;;;13.40;99.90;;;;;;5053728;28;20417;-87
2023/03/24 10:23:00;;;;;;;8.67;7.53;;;13.30;99.90;;;;;;5053462;28;20438;-87
2023/03/24 10:25:37;;;;;;;8.07;6.77;;;13.40;99.90;;;;;;5053621;28;20453;-86
2023/03/24 10:28:11;;;;;;;11.20;7.90;;;13.40;99.90;;;;;;5054349;28;20446;-87
2023/03/24 10:30:42;;;;;;;7.90;7.20;;;13.40;99.90;;;;;;5063155;28;20504;-88
2023/03/24 10:33:10;;;;;;;8.10;7.30;;;13.40;99.90;;;;;;5070183;28;20444;-87
2023/03/24 10:35:42;;;;;;;8.37;7.53;;;13.40;99.90;;;;;;5055402;28;20495;-87
2023/03/24 10:38:17;;;;;;;8.23;7.53;;;13.30;99.90;;;;;;5053769;28;20476;-87
2023/03/24 10:40:45;;;;;;;7.57;6.77;;;13.30;99.90;;;;;;5053844;28;20457;-87
2023/03/24 10:43:12;;;;;;;9.07;7.67;;;13.40;99.90;;;;;;5055312;28;20454;-87
2023/03/24 10:45:43;;;;;;;8.67;7.87;;;13.40;99.90;;;;;;5057507;28;20426;-87
2023/03/24 10:48:13;;;;;;;10.20;7.53;;;13.40;99.90;;;;;;5054476;28;20461;-87
2023/03/24 10:50:43;;;;;;;9.87;8.93;;;13.40;99.90;;;;;;5054321;28;21118;-87
2023/03/24 10:53:18;;;;;;;8.90;7.67;;;13.30;99.90;;;;;;5054301;28;20888;-87
2023/03/24 10:55:46;;;;;;;8.90;8.00;;;13.30;99.90;;;;;;5054260;28;20501;-87
2023/03/24 10:58:20;;;;;;;8.23;7.43;;;13.30;99.90;;;;;;5054756;28;20472;-87
2023/03/24 11:00:48;;;;;;;11.63;7.73;;;13.40;99.90;;;;;;5054163;28;20494;-87
2023/03/24 11:03:22;;;;;;;10.30;7.73;;;13.40;99.90;;;;;;5054387;28;20465;-87
2023/03/24 11:05:49;;;;;;;7.87;7.03;;;13.40;99.90;;;;;;5053307;28;20484;-87
2023/03/24 11:08:27;;;;;;;9.93;7.97;;;13.40;99.90;;;;;;5053862;28;20450;-87
2023/03/24 11:10:54;;;;;;;10.47;7.90;;;13.40;99.90;;;;;;5054439;28;20619;-87
2023/03/24 11:13:31;;;;;;;9.50;8.50;;;13.40;99.90;;;;;;5053834;28;20469;-87
2023/03/24 11:16:07;;;;;;;9.90;8.87;;;13.40;99.90;;;;;;5053099;28;20447;-87
2023/03/24 11:18:34;;;;;;;9.73;8.13;;;13.50;99.90;;;;;;5053759;28;20890;-87
2023/03/24 11:21:03;;;;;;;9.57;8.57;;;13.50;99.90;;;;;;5053929;28;20473;-87
2023/03/24 11:23:34;;;;;;;9.40;8.47;;;13.50;99.90;;;;;;5053084;28;21013;-87
2023/03/24 11:26:09;;;;;;;8.77;7.87;;;13.50;99.90;;;;;;5050046;28;20474;-86
2023/03/24 11:28:39;;;;;;;9.93;8.93;;;13.50;99.90;;;;;;5041909;28;20449;-86
2023/03/24 11:31:08;;;;;;;9.07;8.20;;;13.60;99.90;;;;;;5046339;28;20509;-87
2023/03/24 11:33:43;;;;;;;10.37;8.00;;;13.60;99.90;;;;;;5044552;28;20880;-86
2023/03/24 11:36:41;;;;;;;15.97;8.93;;;13.50;99.90;;;;;;5042193;28;20495;-86
2023/03/24 11:39:12;;;;;;;10.10;8.50;;;13.40;99.90;;;;;;5044199;28;20439;-86
2023/03/24 11:41:42;;;;;;;9.20;8.30;;;13.50;99.90;;;;;;5042370;28;20434;-87
2023/03/24 11:44:17;;;;;;;12.07;9.30;;;13.50;99.90;;;;;;5037993;28;20882;-87
2023/03/24 11:46:47;;;;;;;11.83;8.37;;;13.50;99.90;;;;;;5042960;28;21042;-85
2023/03/24 11:49:19;;;;;;;8.20;7.40;;;13.40;99.90;;;;;;5041873;28;20518;-87
2023/03/24 11:51:51;;;;;;;10.50;9.40;;;13.50;99.90;;;;;;5045622;28;20968;-87
2023/03/24 11:54:23;;;;;;;13.90;12.03;;;13.50;99.90;;;;;;5054781;28;20583;-89
2023/03/24 11:56:53;;;;;;;17.70;15.60;;;13.50;99.90;;;;;;5034702;28;20781;-89
2023/03/24 11:59:29;;;;;;;15.43;12.97;;;13.60;99.90;;;;;;5036042;28;20451;-89
2023/03/24 12:02:10;;;;;;;12.97;11.67;;;13.60;99.90;;;;;;5037087;28;20449;-89
2023/03/24 12:04:48;;;;;;;15.87;11.27;;;13.60;99.90;;;;;;5034903;28;20466;-89
2023/03/24 12:07:52;;;;;;;13.20;12.00;;;13.60;99.90;;;;;;5035229;28;20449;-89
2023/03/24 12:10:28;;;;;;;14.47;11.47;;;13.60;99.90;;;;;;5025321;28;20533;-89
2023/03/24 12:13:03;;;;;;;13.63;12.33;;;13.70;99.90;;;;;;5047035;28;20450;-89
2023/03/24 12:15:41;;;;;;;13.07;11.73;;;13.70;99.90;;;;;;5040229;28;20434;-89
2023/03/24 12:18:24;;;;;;;12.30;11.10;;;13.60;99.90;;;;;;5038526;28;20466;-89
2023/03/24 12:20:58;;;;;;;13.77;12.37;;;13.70;99.90;;;;;;5035880;28;20504;-90
2023/03/24 12:23:34;;;;;;;14.53;12.00;;;13.80;99.90;;;;;;5036288;28;20550;-90
2023/03/24 12:26:18;;;;;;;13.90;11.93;;;13.90;99.90;;;;;;5036946;28;20434;-89
2023/03/24 12:29:13;;;;;;;13.03;11.60;;;13.90;99.90;;;;;;5038241;28;20475;-89
2023/03/24 12:32:05;;;;;;;15.17;13.07;;;14.00;99.90;;;;;;5037245;28;20480;-90
2023/03/24 12:35:04;;;;;;;14.37;12.87;;;14.10;99.90;;;;;;5033331;28;20561;-89
2023/03/24 12:37:39;;;;;;;60.10;43.07;;;14.20;99.90;;;;;;5035050;28;20804;-90
2023/03/24 12:40:36;;;;;;;47.40;17.73;;;14.30;99.90;;;;;;5035776;28;20454;-90
2023/03/24 12:43:16;;;;;;;23.10;16.40;;;14.30;99.90;;;;;;5033994;28;20531;-89
2023/03/24 12:45:48;;;;;;;18.37;13.57;;;14.30;99.90;;;;;;5034088;28;20485;-90
2023/03/24 12:48:38;;;;;;;18.33;14.17;;;14.30;99.90;;;;;;5034042;28;20447;-89
2023/03/24 12:51:16;;;;;;;17.30;13.50;;;14.30;99.90;;;;;;5034390;28;20475;-89
2023/03/24 12:53:55;;;;;;;13.00;11.53;;;14.20;99.90;;;;;;5033536;28;21017;-89
2023/03/24 12:56:30;;;;;;;16.60;12.20;;;14.20;99.90;;;;;;5033868;28;20439;-89
2023/03/24 12:59:02;;;;;;;15.10;13.50;;;14.30;99.90;;;;;;5034395;28;20430;-89
2023/03/24 13:01:34;;;;;;;17.63;13.67;;;14.30;99.90;;;;;;5034036;28;20435;-88
2023/03/24 13:04:07;;;;;;;20.10;13.97;;;14.40;99.90;;;;;;5033821;28;20476;-89